sensor_id;sensor_type;location;lat;lon;timestamp;pressure;altitude;pressure_sealevel;temperature;humidity
64644;BME280;51056;50.330;7.914;2023-05-16T00:02:48;100508.16;;;13.00;78.59
64644;BME280;51056;50.330;7.914;2023-05-16T00:05:55;100513.03;;;13.06;78.89
64644;BME280;51056;50.330;7.914;2023-05-16T00:08:58;100521.28;;;13.00;78.62
64644;BME280;51056;50.330;7.914;2023-05-16T00:12:02;100519.78;;;12.82;78.56
64644;BME280;51056;50.330;7.914;2023-05-16T00:15:07;100517.16;;;12.82;78.71
64644;BME280;51056;50.330;7.914;2023-05-16T00:18:14;100509.09;;;12.85;78.15
64644;BME280;51056;50.330;7.914;2023-05-16T00:21:18;100518.38;;;12.90;77.65
64644;BME280;51056;50.330;7.914;2023-05-16T00:24:27;100522.34;;;12.83;78.05
64644;BME280;51056;50.330;7.914;2023-05-16T00:27:30;100524.69;;;12.73;77.50
64644;BME280;51056;50.330;7.914;2023-05-16T00:30:33;100524.84;;;12.85;77.54
64644;BME280;51056;50.330;7.914;2023-05-16T00:33:36;100529.72;;;12.91;77.13
64644;BME280;51056;50.330;7.914;2023-05-16T00:36:40;100532.72;;;12.85;77.14
64644;BME280;51056;50.330;7.914;2023-05-16T00:39:44;100525.31;;;12.91;77.35
64644;BME280;51056;50.330;7.914;2023-05-16T00:42:49;100527.66;;;12.96;76.77
64644;BME280;51056;50.330;7.914;2023-05-16T00:45:52;100527.84;;;12.93;76.95
64644;BME280;51056;50.330;7.914;2023-05-16T00:48:57;100525.59;;;12.87;76.89
64644;BME280;51056;50.330;7.914;2023-05-16T00:52:01;100521.97;;;12.89;76.55
64644;BME280;51056;50.330;7.914;2023-05-16T00:55:05;100518.63;;;13.14;75.68
64644;BME280;51056;50.330;7.914;2023-05-16T00:58:10;100521.53;;;13.10;75.79
64644;BME280;51056;50.330;7.914;2023-05-16T01:01:18;100520.91;;;12.92;76.00
64644;BME280;51056;50.330;7.914;2023-05-16T01:04:24;100518.28;;;13.06;75.75
64644;BME280;51056;50.330;7.914;2023-05-16T01:07:30;100520.50;;;13.12;74.94
64644;BME280;51056;50.330;7.914;2023-05-16T01:10:52;100527.16;;;13.18;74.93
64644;BME280;51056;50.330;7.914;2023-05-16T01:14:28;100526.69;;;13.11;74.48
64644;BME280;51056;50.330;7.914;2023-05-16T01:17:53;100532.03;;;12.95;75.23
64644;BME280;51056;50.330;7.914;2023-05-16T01:21:03;100524.84;;;12.99;75.52
64644;BME280;51056;50.330;7.914;2023-05-16T01:24:33;100525.69;;;12.85;76.24
64644;BME280;51056;50.330;7.914;2023-05-16T01:27:37;100525.56;;;13.01;76.58
64644;BME280;51056;50.330;7.914;2023-05-16T01:30:41;100521.75;;;13.07;76.06
64644;BME280;51056;50.330;7.914;2023-05-16T01:33:45;100530.84;;;12.87;76.21
64644;BME280;51056;50.330;7.914;2023-05-16T01:37:11;100523.53;;;12.77;76.14
64644;BME280;51056;50.330;7.914;2023-05-16T01:40:28;100524.22;;;12.67;77.04
64644;BME280;51056;50.330;7.914;2023-05-16T01:43:41;100524.47;;;12.91;76.30
64644;BME280;51056;50.330;7.914;2023-05-16T01:46:46;100520.16;;;12.75;76.56
64644;BME280;51056;50.330;7.914;2023-05-16T01:49:57;100522.25;;;12.70;76.78
64644;BME280;51056;50.330;7.914;2023-05-16T01:53:08;100528.22;;;12.58;77.21
64644;BME280;51056;50.330;7.914;2023-05-16T01:56:15;100520.44;;;12.56;77.59
64644;BME280;51056;50.330;7.914;2023-05-16T01:59:19;100528.38;;;12.41;78.50
64644;BME280;51056;50.330;7.914;2023-05-16T02:02:24;100530.47;;;12.64;77.68
64644;BME280;51056;50.330;7.914;2023-05-16T02:05:28;100537.25;;;12.24;79.13
64644;BME280;51056;50.330;7.914;2023-05-16T02:08:31;100526.69;;;12.25;79.47
64644;BME280;51056;50.330;7.914;2023-05-16T02:11:34;100534.41;;;12.57;78.53
64644;BME280;51056;50.330;7.914;2023-05-16T02:14:37;100531.44;;;12.19;79.04
64644;BME280;51056;50.330;7.914;2023-05-16T02:17:40;100541.84;;;12.34;79.14
64644;BME280;51056;50.330;7.914;2023-05-16T02:20:44;100539.44;;;12.60;78.26
64644;BME280;51056;50.330;7.914;2023-05-16T02:23:47;100536.19;;;12.71;78.02
64644;BME280;51056;50.330;7.914;2023-05-16T02:26:51;100534.50;;;12.55;78.20
64644;BME280;51056;50.330;7.914;2023-05-16T02:29:54;100549.19;;;12.44;77.96
64644;BME280;51056;50.330;7.914;2023-05-16T02:32:58;100544.88;;;12.57;77.55
64644;BME280;51056;50.330;7.914;2023-05-16T02:36:01;100548.34;;;12.43;78.17
64644;BME280;51056;50.330;7.914;2023-05-16T02:39:05;100546.91;;;12.38;79.28
64644;BME280;51056;50.330;7.914;2023-05-16T02:42:10;100555.53;;;12.25;79.71
64644;BME280;51056;50.330;7.914;2023-05-16T02:45:15;100550.41;;;12.52;79.18
64644;BME280;51056;50.330;7.914;2023-05-16T02:48:18;100545.84;;;12.56;78.18
64644;BME280;51056;50.330;7.914;2023-05-16T02:51:24;100545.66;;;12.73;77.40
64644;BME280;51056;50.330;7.914;2023-05-16T02:54:27;100552.03;;;12.84;77.66
64644;BME280;51056;50.330;7.914;2023-05-16T02:57:31;100557.56;;;12.93;77.79
64644;BME280;51056;50.330;7.914;2023-05-16T03:00:34;100554.28;;;12.90;77.25
64644;BME280;51056;50.330;7.914;2023-05-16T03:03:37;100559.16;;;12.67;77.41
64644;BME280;51056;50.330;7.914;2023-05-16T03:06:40;100559.16;;;12.67;77.08
64644;BME280;51056;50.330;7.914;2023-05-16T03:09:43;100551.19;;;12.69;77.48
64644;BME280;51056;50.330;7.914;2023-05-16T03:12:46;100553.34;;;12.48;78.35
64644;BME280;51056;50.330;7.914;2023-05-16T03:15:50;100552.38;;;12.49;79.49
64644;BME280;51056;50.330;7.914;2023-05-16T03:18:54;100554.78;;;12.38;80.27
64644;BME280;51056;50.330;7.914;2023-05-16T03:21:58;100561.34;;;12.30;81.99
64644;BME280;51056;50.330;7.914;2023-05-16T03:25:02;100562.25;;;11.99;82.41
64644;BME280;51056;50.330;7.914;2023-05-16T03:28:07;100553.28;;;12.19;81.90
64644;BME280;51056;50.330;7.914;2023-05-16T03:31:10;100561.22;;;12.18;81.43
64644;BME280;51056;50.330;7.914;2023-05-16T03:34:14;100556.97;;;12.15;82.56
64644;BME280;51056;50.330;7.914;2023-05-16T03:41:35;100556.13;;;12.59;82.00
64644;BME280;51056;50.330;7.914;2023-05-16T03:44:38;100567.94;;;12.66;81.77
64644;BME280;51056;50.330;7.914;2023-05-16T03:47:42;100569.44;;;12.42;82.29
64644;BME280;51056;50.330;7.914;2023-05-16T03:50:46;100567.13;;;12.21;82.46
64644;BME280;51056;50.330;7.914;2023-05-16T03:53:49;100575.75;;;12.23;82.60
64644;BME280;51056;50.330;7.914;2023-05-16T03:56:53;100587.19;;;12.37;84.10
64644;BME280;51056;50.330;7.914;2023-05-16T03:59:56;100583.84;;;11.89;83.37
64644;BME280;51056;50.330;7.914;2023-05-16T04:02:59;100589.53;;;11.97;83.74
64644;BME280;51056;50.330;7.914;2023-05-16T04:06:04;100582.03;;;12.05;83.56
64644;BME280;51056;50.330;7.914;2023-05-16T04:09:07;100594.47;;;12.01;83.81
64644;BME280;51056;50.330;7.914;2023-05-16T04:12:10;100592.72;;;11.86;83.30
64644;BME280;51056;50.330;7.914;2023-05-16T04:15:13;100606.06;;;11.66;83.92
64644;BME280;51056;50.330;7.914;2023-05-16T04:18:17;100610.34;;;11.19;85.03
64644;BME280;51056;50.330;7.914;2023-05-16T04:21:20;100611.63;;;11.28;85.96
64644;BME280;51056;50.330;7.914;2023-05-16T04:24:23;100614.34;;;11.58;85.55
64644;BME280;51056;50.330;7.914;2023-05-16T04:27:30;100613.16;;;11.48;85.15
64644;BME280;51056;50.330;7.914;2023-05-16T04:30:34;100608.09;;;11.76;84.91
64644;BME280;51056;50.330;7.914;2023-05-16T04:33:37;100617.81;;;11.74;85.32
64644;BME280;51056;50.330;7.914;2023-05-16T04:36:41;100611.31;;;11.81;84.42
64644;BME280;51056;50.330;7.914;2023-05-16T04:39:44;100626.53;;;11.59;83.59
64644;BME280;51056;50.330;7.914;2023-05-16T04:42:48;100623.25;;;11.22;83.87
64644;BME280;51056;50.330;7.914;2023-05-16T04:45:51;100630.94;;;11.25;85.87
64644;BME280;51056;50.330;7.914;2023-05-16T04:48:55;100633.16;;;11.00;86.10
64644;BME280;51056;50.330;7.914;2023-05-16T04:51:59;100644.50;;;11.33;86.96
64644;BME280;51056;50.330;7.914;2023-05-16T04:55:10;100638.47;;;11.31;85.77
64644;BME280;51056;50.330;7.914;2023-05-16T04:58:13;100650.44;;;11.53;85.97
64644;BME280;51056;50.330;7.914;2023-05-16T05:01:17;100650.00;;;11.76;85.32
64644;BME280;51056;50.330;7.914;2023-05-16T05:04:20;100659.31;;;11.82;84.20
64644;BME280;51056;50.330;7.914;2023-05-16T05:07:24;100656.88;;;11.95;83.72
64644;BME280;51056;50.330;7.914;2023-05-16T05:10:30;100659.13;;;11.69;83.49
64644;BME280;51056;50.330;7.914;2023-05-16T05:13:33;100664.44;;;11.36;82.85
64644;BME280;51056;50.330;7.914;2023-05-16T05:16:37;100664.09;;;11.58;85.32
64644;BME280;51056;50.330;7.914;2023-05-16T05:19:40;100670.56;;;11.68;85.27
64644;BME280;51056;50.330;7.914;2023-05-16T05:22:43;100683.97;;;11.62;84.36
64644;BME280;51056;50.330;7.914;2023-05-16T05:25:50;100681.59;;;11.73;84.79
64644;BME280;51056;50.330;7.914;2023-05-16T05:28:53;100687.94;;;11.69;84.78
64644;BME280;51056;50.330;7.914;2023-05-16T05:32:00;100689.78;;;11.84;86.14
64644;BME280;51056;50.330;7.914;2023-05-16T05:35:04;100689.06;;;11.81;83.90
64644;BME280;51056;50.330;7.914;2023-05-16T05:38:08;100701.09;;;11.52;82.50
64644;BME280;51056;50.330;7.914;2023-05-16T05:41:14;100697.41;;;11.56;82.12
64644;BME280;51056;50.330;7.914;2023-05-16T05:44:17;100705.41;;;11.53;83.21
64644;BME280;51056;50.330;7.914;2023-05-16T05:47:21;100714.38;;;11.64;84.47
64644;BME280;51056;50.330;7.914;2023-05-16T05:50:24;100713.19;;;11.70;84.36
64644;BME280;51056;50.330;7.914;2023-05-16T05:53:27;100721.34;;;11.81;83.85
64644;BME280;51056;50.330;7.914;2023-05-16T05:56:31;100716.25;;;11.78;83.02
64644;BME280;51056;50.330;7.914;2023-05-16T05:59:35;100727.69;;;11.77;82.83
64644;BME280;51056;50.330;7.914;2023-05-16T06:02:39;100728.97;;;11.86;82.66
64644;BME280;51056;50.330;7.914;2023-05-16T06:05:43;100739.78;;;11.96;82.55
64644;BME280;51056;50.330;7.914;2023-05-16T06:08:46;100746.41;;;11.87;81.32
64644;BME280;51056;50.330;7.914;2023-05-16T06:11:50;100753.38;;;11.86;80.63
64644;BME280;51056;50.330;7.914;2023-05-16T06:14:53;100759.41;;;11.89;80.54
64644;BME280;51056;50.330;7.914;2023-05-16T06:17:58;100767.19;;;11.90;81.20
64644;BME280;51056;50.330;7.914;2023-05-16T06:21:01;100776.66;;;11.93;80.14
64644;BME280;51056;50.330;7.914;2023-05-16T06:24:05;100777.09;;;11.83;80.60
64644;BME280;51056;50.330;7.914;2023-05-16T06:27:09;100781.72;;;11.96;79.17
64644;BME280;51056;50.330;7.914;2023-05-16T06:30:12;100794.69;;;11.81;79.21
64644;BME280;51056;50.330;7.914;2023-05-16T06:33:15;100792.09;;;11.81;79.07
64644;BME280;51056;50.330;7.914;2023-05-16T06:36:19;100797.47;;;11.78;79.03
64644;BME280;51056;50.330;7.914;2023-05-16T06:39:22;100802.47;;;11.83;78.40
64644;BME280;51056;50.330;7.914;2023-05-16T06:42:25;100801.84;;;11.62;79.39
64644;BME280;51056;50.330;7.914;2023-05-16T06:45:29;100801.88;;;11.78;78.20
64644;BME280;51056;50.330;7.914;2023-05-16T06:48:32;100806.19;;;11.79;78.13
64644;BME280;51056;50.330;7.914;2023-05-16T06:51:36;100805.19;;;11.81;79.59
64644;BME280;51056;50.330;7.914;2023-05-16T06:54:39;100814.97;;;11.27;78.72
64644;BME280;51056;50.330;7.914;2023-05-16T06:57:42;100817.25;;;11.16;79.14
64644;BME280;51056;50.330;7.914;2023-05-16T07:00:48;100820.19;;;11.27;80.68
64644;BME280;51056;50.330;7.914;2023-05-16T07:03:51;100827.13;;;11.28;80.82
64644;BME280;51056;50.330;7.914;2023-05-16T07:06:55;100825.56;;;11.07;79.05
64644;BME280;51056;50.330;7.914;2023-05-16T07:09:58;100837.00;;;11.23;80.09
64644;BME280;51056;50.330;7.914;2023-05-16T07:13:01;100841.38;;;11.40;79.66
64644;BME280;51056;50.330;7.914;2023-05-16T07:16:05;100838.66;;;11.59;80.26
64644;BME280;51056;50.330;7.914;2023-05-16T07:19:10;100840.28;;;11.61;78.76
64644;BME280;51056;50.330;7.914;2023-05-16T07:22:13;100839.25;;;11.81;80.19
64644;BME280;51056;50.330;7.914;2023-05-16T07:25:17;100848.41;;;11.73;79.09
64644;BME280;51056;50.330;7.914;2023-05-16T07:28:20;100840.94;;;12.00;78.59
64644;BME280;51056;50.330;7.914;2023-05-16T07:31:50;100844.56;;;11.97;76.43
64644;BME280;51056;50.330;7.914;2023-05-16T07:34:54;100845.03;;;11.88;77.10
64644;BME280;51056;50.330;7.914;2023-05-16T07:37:57;100849.66;;;11.66;78.07
64644;BME280;51056;50.330;7.914;2023-05-16T07:41:00;100857.38;;;11.69;77.50
64644;BME280;51056;50.330;7.914;2023-05-16T07:44:03;100862.69;;;11.84;76.82
64644;BME280;51056;50.330;7.914;2023-05-16T07:47:07;100866.72;;;11.39;75.77
64644;BME280;51056;50.330;7.914;2023-05-16T07:50:11;100869.16;;;11.60;77.46
64644;BME280;51056;50.330;7.914;2023-05-16T07:53:14;100868.47;;;11.56;77.74
64644;BME280;51056;50.330;7.914;2023-05-16T07:56:17;100873.63;;;11.75;76.46
64644;BME280;51056;50.330;7.914;2023-05-16T07:59:21;100870.84;;;11.78;76.37
64644;BME280;51056;50.330;7.914;2023-05-16T08:02:24;100886.47;;;11.80;74.80
64644;BME280;51056;50.330;7.914;2023-05-16T08:05:28;100886.81;;;10.85;76.53
64644;BME280;51056;50.330;7.914;2023-05-16T08:08:31;100888.00;;;10.78;74.79
64644;BME280;51056;50.330;7.914;2023-05-16T08:11:35;100902.50;;;10.85;74.89
64644;BME280;51056;50.330;7.914;2023-05-16T08:14:42;100888.41;;;11.24;75.19
64644;BME280;51056;50.330;7.914;2023-05-16T08:17:48;100891.38;;;11.16;73.66
64644;BME280;51056;50.330;7.914;2023-05-16T08:20:52;100890.66;;;11.49;74.68
64644;BME280;51056;50.330;7.914;2023-05-16T08:23:59;100902.09;;;11.12;72.30
64644;BME280;51056;50.330;7.914;2023-05-16T08:27:03;100903.81;;;11.30;73.61
64644;BME280;51056;50.330;7.914;2023-05-16T08:30:07;100905.69;;;11.46;71.10
64644;BME280;51056;50.330;7.914;2023-05-16T08:33:10;100896.56;;;11.70;71.24
64644;BME280;51056;50.330;7.914;2023-05-16T08:36:13;100910.97;;;11.44;69.85
64644;BME280;51056;50.330;7.914;2023-05-16T08:39:17;100908.28;;;11.63;69.70
64644;BME280;51056;50.330;7.914;2023-05-16T08:42:20;100914.25;;;10.58;69.42
64644;BME280;51056;50.330;7.914;2023-05-16T08:45:24;100912.84;;;10.51;69.50
64644;BME280;51056;50.330;7.914;2023-05-16T08:48:31;100919.06;;;10.67;69.95
64644;BME280;51056;50.330;7.914;2023-05-16T08:51:36;100913.88;;;10.84;70.60
64644;BME280;51056;50.330;7.914;2023-05-16T08:54:40;100918.19;;;11.39;69.30
64644;BME280;51056;50.330;7.914;2023-05-16T08:57:44;100925.16;;;11.75;68.67
64644;BME280;51056;50.330;7.914;2023-05-16T09:00:48;100919.25;;;11.71;65.97
64644;BME280;51056;50.330;7.914;2023-05-16T09:03:51;100919.56;;;12.00;65.92
64644;BME280;51056;50.330;7.914;2023-05-16T09:06:55;100915.69;;;11.72;63.37
64644;BME280;51056;50.330;7.914;2023-05-16T09:09:58;100917.38;;;11.73;61.72
64644;BME280;51056;50.330;7.914;2023-05-16T09:13:02;100919.09;;;11.92;63.01
64644;BME280;51056;50.330;7.914;2023-05-16T09:16:14;100933.28;;;11.88;64.84
64644;BME280;51056;50.330;7.914;2023-05-16T09:19:18;100909.47;;;12.25;60.26
64644;BME280;51056;50.330;7.914;2023-05-16T09:22:21;100910.34;;;12.42;61.20
64644;BME280;51056;50.330;7.914;2023-05-16T09:25:27;100908.13;;;12.50;59.46
64644;BME280;51056;50.330;7.914;2023-05-16T09:28:30;100902.88;;;12.50;63.64
64644;BME280;51056;50.330;7.914;2023-05-16T09:31:34;100911.38;;;12.71;61.12
64644;BME280;51056;50.330;7.914;2023-05-16T09:34:44;100899.88;;;12.57;60.34
64644;BME280;51056;50.330;7.914;2023-05-16T09:37:49;100904.78;;;12.64;60.55
64644;BME280;51056;50.330;7.914;2023-05-16T09:40:54;100908.31;;;12.47;55.94
64644;BME280;51056;50.330;7.914;2023-05-16T09:43:58;100896.56;;;12.05;58.88
64644;BME280;51056;50.330;7.914;2023-05-16T09:47:01;100901.09;;;12.34;58.05
64644;BME280;51056;50.330;7.914;2023-05-16T09:50:05;100894.91;;;12.20;56.24
64644;BME280;51056;50.330;7.914;2023-05-16T09:53:09;100896.66;;;12.84;57.76
64644;BME280;51056;50.330;7.914;2023-05-16T09:56:13;100887.88;;;13.15;57.89
64644;BME280;51056;50.330;7.914;2023-05-16T09:59:17;100896.53;;;12.70;56.59
64644;BME280;51056;50.330;7.914;2023-05-16T10:02:21;100906.88;;;12.57;55.22
64644;BME280;51056;50.330;7.914;2023-05-16T10:05:28;100908.25;;;12.64;53.78
64644;BME280;51056;50.330;7.914;2023-05-16T10:08:32;100899.19;;;12.54;54.68
64644;BME280;51056;50.330;7.914;2023-05-16T10:11:43;100886.66;;;12.75;57.16
64644;BME280;51056;50.330;7.914;2023-05-16T10:14:47;100878.13;;;13.17;55.15
64644;BME280;51056;50.330;7.914;2023-05-16T10:17:53;100891.44;;;13.30;54.65
64644;BME280;51056;50.330;7.914;2023-05-16T10:21:03;100903.38;;;13.20;55.44
64644;BME280;51056;50.330;7.914;2023-05-16T10:24:10;100892.41;;;12.82;53.57
64644;BME280;51056;50.330;7.914;2023-05-16T10:27:14;100888.09;;;12.49;52.24
64644;BME280;51056;50.330;7.914;2023-05-16T10:30:18;100889.72;;;12.51;51.67
64644;BME280;51056;50.330;7.914;2023-05-16T10:33:21;100880.94;;;12.98;53.10
64644;BME280;51056;50.330;7.914;2023-05-16T10:36:25;100876.81;;;12.94;50.20
64644;BME280;51056;50.330;7.914;2023-05-16T10:39:32;100875.59;;;13.16;51.53
64644;BME280;51056;50.330;7.914;2023-05-16T10:42:37;100869.09;;;13.07;49.19
64644;BME280;51056;50.330;7.914;2023-05-16T10:45:40;100859.31;;;13.41;51.39
64644;BME280;51056;50.330;7.914;2023-05-16T10:48:44;100859.13;;;13.58;49.02
64644;BME280;51056;50.330;7.914;2023-05-16T10:55:08;100863.72;;;13.40;46.80
64644;BME280;51056;50.330;7.914;2023-05-16T10:58:17;100861.41;;;13.50;47.73
64644;BME280;51056;50.330;7.914;2023-05-16T11:01:34;100868.72;;;13.59;46.85
64644;BME280;51056;50.330;7.914;2023-05-16T11:04:55;100865.53;;;13.68;48.02
64644;BME280;51056;50.330;7.914;2023-05-16T11:08:04;100871.56;;;13.99;48.98
64644;BME280;51056;50.330;7.914;2023-05-16T11:11:46;100851.47;;;14.27;46.34
64644;BME280;51056;50.330;7.914;2023-05-16T11:14:50;100860.09;;;14.43;45.18
64644;BME280;51056;50.330;7.914;2023-05-16T11:18:13;100870.59;;;14.57;47.39
64644;BME280;51056;50.330;7.914;2023-05-16T11:25:06;100876.06;;;14.26;45.00
64644;BME280;51056;50.330;7.914;2023-05-16T11:28:09;100857.44;;;14.57;46.84
64644;BME280;51056;50.330;7.914;2023-05-16T11:31:14;100864.28;;;14.74;45.37
64644;BME280;51056;50.330;7.914;2023-05-16T11:34:18;100865.06;;;14.89;46.53
64644;BME280;51056;50.330;7.914;2023-05-16T11:37:21;100866.97;;;14.87;45.03
64644;BME280;51056;50.330;7.914;2023-05-16T11:40:25;100861.16;;;14.82;42.98
64644;BME280;51056;50.330;7.914;2023-05-16T11:43:28;100851.88;;;15.03;46.39
64644;BME280;51056;50.330;7.914;2023-05-16T11:46:32;100845.50;;;15.33;46.72
64644;BME280;51056;50.330;7.914;2023-05-16T11:49:36;100863.94;;;15.33;46.52
64644;BME280;51056;50.330;7.914;2023-05-16T11:52:43;100857.56;;;14.83;43.29
64644;BME280;51056;50.330;7.914;2023-05-16T11:55:47;100860.84;;;14.59;43.41
64644;BME280;51056;50.330;7.914;2023-05-16T11:58:54;100859.88;;;14.75;44.11
64644;BME280;51056;50.330;7.914;2023-05-16T12:02:02;100862.06;;;15.08;43.76
64644;BME280;51056;50.330;7.914;2023-05-16T12:05:07;100867.81;;;14.87;42.71
64644;BME280;51056;50.330;7.914;2023-05-16T12:08:11;100850.09;;;14.89;41.57
64644;BME280;51056;50.330;7.914;2023-05-16T12:11:15;100852.19;;;15.11;41.54
64644;BME280;51056;50.330;7.914;2023-05-16T12:14:19;100853.75;;;14.74;38.82
64644;BME280;51056;50.330;7.914;2023-05-16T12:17:23;100859.56;;;15.06;40.71
64644;BME280;51056;50.330;7.914;2023-05-16T12:20:26;100860.28;;;15.48;40.29
64644;BME280;51056;50.330;7.914;2023-05-16T12:23:34;100862.50;;;15.54;40.70
64644;BME280;51056;50.330;7.914;2023-05-16T12:26:39;100865.59;;;15.74;40.18
64644;BME280;51056;50.330;7.914;2023-05-16T12:29:46;100852.22;;;15.90;41.18
64644;BME280;51056;50.330;7.914;2023-05-16T12:32:57;100857.38;;;15.91;39.44
64644;BME280;51056;50.330;7.914;2023-05-16T12:36:00;100875.16;;;15.09;38.56
64644;BME280;51056;50.330;7.914;2023-05-16T12:39:06;100894.59;;;14.94;38.13
64644;BME280;51056;50.330;7.914;2023-05-16T12:42:13;100879.56;;;15.49;39.73
64644;BME280;51056;50.330;7.914;2023-05-16T12:45:17;100873.13;;;15.40;38.61
64644;BME280;51056;50.330;7.914;2023-05-16T12:48:22;100868.66;;;15.80;40.43
64644;BME280;51056;50.330;7.914;2023-05-16T12:51:28;100868.88;;;15.77;40.19
64644;BME280;51056;50.330;7.914;2023-05-16T12:54:31;100885.38;;;15.54;38.69
64644;BME280;51056;50.330;7.914;2023-05-16T12:57:34;100881.56;;;15.05;39.28
64644;BME280;51056;50.330;7.914;2023-05-16T13:00:41;100890.09;;;15.36;41.18
64644;BME280;51056;50.330;7.914;2023-05-16T13:03:45;100887.06;;;15.55;39.45
64644;BME280;51056;50.330;7.914;2023-05-16T13:06:49;100888.13;;;16.29;39.52
64644;BME280;51056;50.330;7.914;2023-05-16T13:09:52;100886.16;;;15.94;38.34
64644;BME280;51056;50.330;7.914;2023-05-16T13:12:55;100880.88;;;15.69;38.67
64644;BME280;51056;50.330;7.914;2023-05-16T13:16:01;100880.59;;;15.86;39.11
64644;BME280;51056;50.330;7.914;2023-05-16T13:19:04;100887.53;;;16.62;37.89
64644;BME280;51056;50.330;7.914;2023-05-16T13:22:08;100884.72;;;16.40;36.05
64644;BME280;51056;50.330;7.914;2023-05-16T13:25:11;100894.44;;;16.39;36.33
64644;BME280;51056;50.330;7.914;2023-05-16T13:28:14;100896.03;;;16.42;37.14
64644;BME280;51056;50.330;7.914;2023-05-16T13:31:18;100895.00;;;16.81;36.43
64644;BME280;51056;50.330;7.914;2023-05-16T13:34:21;100895.50;;;17.34;36.13
64644;BME280;51056;50.330;7.914;2023-05-16T13:37:24;100901.91;;;16.58;37.05
64644;BME280;51056;50.330;7.914;2023-05-16T13:40:29;100901.94;;;16.95;37.53
64644;BME280;51056;50.330;7.914;2023-05-16T13:43:32;100900.66;;;16.88;35.31
64644;BME280;51056;50.330;7.914;2023-05-16T13:46:36;100909.38;;;16.64;35.99
64644;BME280;51056;50.330;7.914;2023-05-16T13:49:39;100915.81;;;16.86;36.60
64644;BME280;51056;50.330;7.914;2023-05-16T13:52:42;100918.53;;;16.47;37.55
64644;BME280;51056;50.330;7.914;2023-05-16T13:55:46;100914.50;;;16.42;37.74
64644;BME280;51056;50.330;7.914;2023-05-16T13:58:49;100917.44;;;16.63;37.26
64644;BME280;51056;50.330;7.914;2023-05-16T14:01:53;100925.63;;;17.56;36.13
64644;BME280;51056;50.330;7.914;2023-05-16T14:04:56;100902.66;;;18.14;34.99
64644;BME280;51056;50.330;7.914;2023-05-16T14:07:59;100919.94;;;17.14;32.47
64644;BME280;51056;50.330;7.914;2023-05-16T14:11:03;100922.09;;;17.79;32.99
64644;BME280;51056;50.330;7.914;2023-05-16T14:14:06;100912.97;;;17.83;33.09
64644;BME280;51056;50.330;7.914;2023-05-16T14:17:10;100910.81;;;18.67;32.24
64644;BME280;51056;50.330;7.914;2023-05-16T14:20:13;100912.00;;;19.29;30.91
64644;BME280;51056;50.330;7.914;2023-05-16T14:23:17;100909.47;;;20.42;28.19
64644;BME280;51056;50.330;7.914;2023-05-16T14:26:20;100903.66;;;19.34;30.75
64644;BME280;51056;50.330;7.914;2023-05-16T14:29:27;100913.44;;;17.18;31.98
64644;BME280;51056;50.330;7.914;2023-05-16T14:32:30;100906.81;;;17.36;33.97
64644;BME280;51056;50.330;7.914;2023-05-16T14:35:33;100903.25;;;17.49;33.13
64644;BME280;51056;50.330;7.914;2023-05-16T14:38:37;100889.94;;;21.98;27.81
64644;BME280;51056;50.330;7.914;2023-05-16T14:41:40;100892.00;;;20.09;29.19
64644;BME280;51056;50.330;7.914;2023-05-16T14:44:44;100887.66;;;21.08;28.58
64644;BME280;51056;50.330;7.914;2023-05-16T14:47:47;100889.78;;;19.62;29.12
64644;BME280;51056;50.330;7.914;2023-05-16T14:50:50;100901.94;;;18.46;32.60
64644;BME280;51056;50.330;7.914;2023-05-16T14:53:54;100901.06;;;17.42;32.71
64644;BME280;51056;50.330;7.914;2023-05-16T14:56:57;100899.56;;;18.31;33.25
64644;BME280;51056;50.330;7.914;2023-05-16T15:00:01;100880.00;;;22.38;27.66
64644;BME280;51056;50.330;7.914;2023-05-16T15:03:05;100876.31;;;24.93;24.90
64644;BME280;51056;50.330;7.914;2023-05-16T15:06:09;100874.06;;;26.11;23.12
64644;BME280;51056;50.330;7.914;2023-05-16T15:09:13;100890.09;;;26.66;22.35
64644;BME280;51056;50.330;7.914;2023-05-16T15:12:16;100893.88;;;25.93;21.72
64644;BME280;51056;50.330;7.914;2023-05-16T15:15:20;100889.13;;;23.26;25.88
64644;BME280;51056;50.330;7.914;2023-05-16T15:18:23;100893.03;;;23.14;25.18
64644;BME280;51056;50.330;7.914;2023-05-16T15:21:28;100892.22;;;25.02;22.68
64644;BME280;51056;50.330;7.914;2023-05-16T15:24:33;100890.72;;;25.65;23.56
64644;BME280;51056;50.330;7.914;2023-05-16T15:27:36;100891.34;;;26.08;22.84
64644;BME280;51056;50.330;7.914;2023-05-16T15:30:40;100894.91;;;25.84;22.60
64644;BME280;51056;50.330;7.914;2023-05-16T15:33:45;100882.97;;;27.66;20.86
64644;BME280;51056;50.330;7.914;2023-05-16T15:36:48;100886.78;;;27.10;21.77
64644;BME280;51056;50.330;7.914;2023-05-16T15:39:52;100893.91;;;23.23;25.17
64644;BME280;51056;50.330;7.914;2023-05-16T15:45:58;100904.34;;;19.89;29.20
64644;BME280;51056;50.330;7.914;2023-05-16T15:49:01;100908.25;;;19.85;31.86
64644;BME280;51056;50.330;7.914;2023-05-16T15:52:04;100924.50;;;19.06;32.42
64644;BME280;51056;50.330;7.914;2023-05-16T15:55:08;100929.63;;;17.73;34.09
64644;BME280;51056;50.330;7.914;2023-05-16T15:58:13;100931.16;;;17.29;35.26
64644;BME280;51056;50.330;7.914;2023-05-16T16:01:16;100924.34;;;19.93;32.18
64644;BME280;51056;50.330;7.914;2023-05-16T16:04:20;100922.28;;;22.23;27.76
64644;BME280;51056;50.330;7.914;2023-05-16T16:07:24;100916.84;;;23.15;25.86
64644;BME280;51056;50.330;7.914;2023-05-16T16:10:28;100937.28;;;23.42;25.97
64644;BME280;51056;50.330;7.914;2023-05-16T16:13:31;100929.50;;;22.40;26.57
64644;BME280;51056;50.330;7.914;2023-05-16T16:16:34;100927.94;;;20.74;30.10
64644;BME280;51056;50.330;7.914;2023-05-16T16:19:40;100931.84;;;20.39;30.71
64644;BME280;51056;50.330;7.914;2023-05-16T16:22:43;100943.19;;;18.59;32.89